Philadelphia International Airport (PHL/KPHL)



Flight Aircraft Arriving
CPX2185 B763
A30F
KSMF - Sacramento International Airport
United StatesCalifornia Sacramento, California
CPX2186 B763
A30F
KONT - Ontario International Airport
United StatesCalifornia Ontario, California
Flight Aircraft Departing
CPX2183 B763
A30F
KSMF - Sacramento International Airport
United StatesCalifornia Sacramento, California
CPX2187 B763
A30F
KONT - Ontario International Airport
United StatesCalifornia Ontario, California


Airport Information
Location: Philadelphia, Pennsylvania
Coordinates: 39.8721 / -75.2407
Field Elevation: 36ft
Longest Runway: 11,992ft
ILS Approaches: YES
Landing Fees: $3,042 per flight
Jet A Price: $0.26/lbs
Charts:

Current Weather
METAR: KPHL 191054Z 23004KT 10SM SCT045 BKN150 OVC230 22/19 A2980 RMK AO2 SLP091 T02170189
TAF: KPHL 190851Z 1909/2012 VRB04KT P6SM SCT060 SCT150 BKN250 FM191400 26010KT P6SM BKN050 FM192300 23008KT P6SM BKN100

Recent Arrivals
Date Flight Type Depart
09/25/2019 CPX439 B738 Chicago/Rockford International Airport (KRFD)
09/23/2019 CPX437 B738 Cincinnati/Northern Kentucky International Airport (KCVG)
09/19/2019 CPX439 B738 Chicago/Rockford International Airport (KRFD)
Recent Departures
Date Flight Type Arrive
10/10/2019 CPX438 B738 Chicago/Rockford International Airport (KRFD)
09/26/2019 CPX438 B738 Chicago/Rockford International Airport (KRFD)
09/23/2019 CPX442 B738 Cincinnati/Northern Kentucky International Airport (KCVG)